sensor_id;sensor_type;location;lat;lon;timestamp;pressure;altitude;pressure_sealevel;temperature;humidity
53940;BME280;39850;43.324;21.916;2024-03-07T00:18:35;989.0;;;10.2;88.0
53940;BME280;39850;43.324;21.916;2024-03-07T00:23:11;989.0;;;10.2;88.0
53940;BME280;39850;43.324;21.916;2024-03-07T00:27:48;989.0;;;10.6;88.0
53940;BME280;39850;43.324;21.916;2024-03-07T00:32:24;989.0;;;10.6;88.0
53940;BME280;39850;43.324;21.916;2024-03-07T00:37:00;989.0;;;10.6;88.0
53940;BME280;39850;43.324;21.916;2024-03-07T00:41:36;989.0;;;10.6;88.0
53940;BME280;39850;43.324;21.916;2024-03-07T00:46:13;989.0;;;10.6;88.0
53940;BME280;39850;43.324;21.916;2024-03-07T00:50:49;989.0;;;10.8;88.0
53940;BME280;39850;43.324;21.916;2024-03-07T00:55:26;989.0;;;10.8;88.0
53940;BME280;39850;43.324;21.916;2024-03-07T01:00:04;989.0;;;10.6;88.0
53940;BME280;39850;43.324;21.916;2024-03-07T01:04:44;989.0;;;10.6;88.0
53940;BME280;39850;43.324;21.916;2024-03-07T01:36:58;989.0;;;9.0;92.0
53940;BME280;39850;43.324;21.916;2024-03-07T01:41:34;989.0;;;9.0;92.0
53940;BME280;39850;43.324;21.916;2024-03-07T01:46:12;989.0;;;9.0;92.0
53940;BME280;39850;43.324;21.916;2024-03-07T01:50:49;989.0;;;9.4;92.0
53940;BME280;39850;43.324;21.916;2024-03-07T01:55:28;989.0;;;9.4;92.0
53940;BME280;39850;43.324;21.916;2024-03-07T02:00:09;989.0;;;9.0;92.0
53940;BME280;39850;43.324;21.916;2024-03-07T02:04:45;989.0;;;9.0;92.0
53940;BME280;39850;43.324;21.916;2024-03-07T02:09:21;989.0;;;9.4;91.0
53940;BME280;39850;43.324;21.916;2024-03-07T02:13:58;989.0;;;9.4;91.0
53940;BME280;39850;43.324;21.916;2024-03-07T02:18:38;989.0;;;8.9;91.0
53940;BME280;39850;43.324;21.916;2024-03-07T02:23:14;989.0;;;8.9;91.0
53940;BME280;39850;43.324;21.916;2024-03-07T03:00:11;988.0;;;8.9;92.0
53940;BME280;39850;43.324;21.916;2024-03-07T03:04:47;988.0;;;8.9;92.0
53940;BME280;39850;43.324;21.916;2024-03-07T03:09:24;988.0;;;9.0;92.0
53940;BME280;39850;43.324;21.916;2024-03-07T03:13:59;988.0;;;9.0;92.0
53940;BME280;39850;43.324;21.916;2024-03-07T03:18:36;988.0;;;9.0;92.0
53940;BME280;39850;43.324;21.916;2024-03-07T03:23:12;988.0;;;9.0;92.0
53940;BME280;39850;43.324;21.916;2024-03-07T03:27:49;988.0;;;9.0;93.0
53940;BME280;39850;43.324;21.916;2024-03-07T03:32:26;988.0;;;9.0;93.0
53940;BME280;39850;43.324;21.916;2024-03-07T03:37:02;988.0;;;9.1;93.0
53940;BME280;39850;43.324;21.916;2024-03-07T03:41:39;988.0;;;9.1;93.0
53940;BME280;39850;43.324;21.916;2024-03-07T03:46:16;988.0;;;9.1;93.0
53940;BME280;39850;43.324;21.916;2024-03-07T04:18:37;989.0;;;10.0;90.0
53940;BME280;39850;43.324;21.916;2024-03-07T04:23:13;989.0;;;10.0;90.0
53940;BME280;39850;43.324;21.916;2024-03-07T04:27:49;989.0;;;9.6;90.0
53940;BME280;39850;43.324;21.916;2024-03-07T04:32:25;989.0;;;9.6;90.0
53940;BME280;39850;43.324;21.916;2024-03-07T04:37:02;989.0;;;9.6;90.0
53940;BME280;39850;43.324;21.916;2024-03-07T04:41:38;989.0;;;9.2;90.0
53940;BME280;39850;43.324;21.916;2024-03-07T04:46:14;989.0;;;9.2;90.0
53940;BME280;39850;43.324;21.916;2024-03-07T04:50:51;989.0;;;9.0;91.0
53940;BME280;39850;43.324;21.916;2024-03-07T04:55:27;989.0;;;9.0;91.0
53940;BME280;39850;43.324;21.916;2024-03-07T05:00:08;989.0;;;8.9;91.0
53940;BME280;39850;43.324;21.916;2024-03-07T05:04:44;989.0;;;8.9;91.0
53940;BME280;39850;43.324;21.916;2024-03-07T05:41:43;989.0;;;9.8;92.0
53940;BME280;39850;43.324;21.916;2024-03-07T05:46:19;989.0;;;9.8;92.0
53940;BME280;39850;43.324;21.916;2024-03-07T05:50:56;989.0;;;9.9;92.0
53940;BME280;39850;43.324;21.916;2024-03-07T05:55:32;989.0;;;9.9;92.0
53940;BME280;39850;43.324;21.916;2024-03-07T06:00:14;989.0;;;10.0;92.0
53940;BME280;39850;43.324;21.916;2024-03-07T06:04:51;989.0;;;10.0;92.0
53940;BME280;39850;43.324;21.916;2024-03-07T06:09:28;989.0;;;10.0;91.0
53940;BME280;39850;43.324;21.916;2024-03-07T06:14:08;989.0;;;10.0;91.0
53940;BME280;39850;43.324;21.916;2024-03-07T06:18:45;989.0;;;10.0;90.0
53940;BME280;39850;43.324;21.916;2024-03-07T06:23:22;989.0;;;10.0;90.0
53940;BME280;39850;43.324;21.916;2024-03-07T07:00:16;990.0;;;10.0;88.0
53940;BME280;39850;43.324;21.916;2024-03-07T07:04:53;990.0;;;10.0;88.0
53940;BME280;39850;43.324;21.916;2024-03-07T07:09:29;990.0;;;10.0;88.0
53940;BME280;39850;43.324;21.916;2024-03-07T07:14:05;990.0;;;10.0;88.0
53940;BME280;39850;43.324;21.916;2024-03-07T07:18:41;990.0;;;10.0;88.0
53940;BME280;39850;43.324;21.916;2024-03-07T07:23:18;990.0;;;10.0;88.0
53940;BME280;39850;43.324;21.916;2024-03-07T07:27:55;990.0;;;10.0;88.0
53940;BME280;39850;43.324;21.916;2024-03-07T07:32:32;990.0;;;10.0;88.0
53940;BME280;39850;43.324;21.916;2024-03-07T07:37:09;990.0;;;10.0;88.0
53940;BME280;39850;43.324;21.916;2024-03-07T07:41:45;990.0;;;10.0;88.0
53940;BME280;39850;43.324;21.916;2024-03-07T07:46:21;990.0;;;10.0;88.0
53940;BME280;39850;43.324;21.916;2024-03-07T08:18:46;990.0;;;9.1;83.0
53940;BME280;39850;43.324;21.916;2024-03-07T08:23:23;990.0;;;9.1;83.0
53940;BME280;39850;43.324;21.916;2024-03-07T08:28:01;990.0;;;9.1;83.0
53940;BME280;39850;43.324;21.916;2024-03-07T08:32:38;990.0;;;9.1;83.0
53940;BME280;39850;43.324;21.916;2024-03-07T08:37:14;990.0;;;9.1;83.0
53940;BME280;39850;43.324;21.916;2024-03-07T08:41:51;990.0;;;9.0;81.0
53940;BME280;39850;43.324;21.916;2024-03-07T08:46:27;990.0;;;9.0;81.0
53940;BME280;39850;43.324;21.916;2024-03-07T08:51:04;990.0;;;9.0;79.0
53940;BME280;39850;43.324;21.916;2024-03-07T08:55:41;990.0;;;9.0;79.0
53940;BME280;39850;43.324;21.916;2024-03-07T09:00:20;990.0;;;9.0;79.0
53940;BME280;39850;43.324;21.916;2024-03-07T09:04:56;990.0;;;9.0;79.0
53940;BME280;39850;43.324;21.916;2024-03-07T09:41:50;990.0;;;9.3;77.0
53940;BME280;39850;43.324;21.916;2024-03-07T09:46:30;990.0;;;9.3;77.0
53940;BME280;39850;43.324;21.916;2024-03-07T09:51:18;990.0;;;9.4;76.0
53940;BME280;39850;43.324;21.916;2024-03-07T09:55:55;990.0;;;9.4;76.0
53940;BME280;39850;43.324;21.916;2024-03-07T10:00:36;990.0;;;9.5;77.0
53940;BME280;39850;43.324;21.916;2024-03-07T10:05:19;990.0;;;9.5;77.0
53940;BME280;39850;43.324;21.916;2024-03-07T10:09:56;990.0;;;9.6;76.0
53940;BME280;39850;43.324;21.916;2024-03-07T10:14:33;990.0;;;9.6;76.0
53940;BME280;39850;43.324;21.916;2024-03-07T10:19:10;990.0;;;9.5;77.0
53940;BME280;39850;43.324;21.916;2024-03-07T10:23:47;990.0;;;9.5;77.0
53940;BME280;39850;43.324;21.916;2024-03-07T11:02:46;990.0;;;7.5;81.0
53940;BME280;39850;43.324;21.916;2024-03-07T11:07:24;990.0;;;7.5;81.0
53940;BME280;39850;43.324;21.916;2024-03-07T11:12:06;990.0;;;7.6;80.0
53940;BME280;39850;43.324;21.916;2024-03-07T11:16:49;990.0;;;7.6;80.0
53940;BME280;39850;43.324;21.916;2024-03-07T11:21:42;990.0;;;7.5;81.0
53940;BME280;39850;43.324;21.916;2024-03-07T11:26:19;990.0;;;7.5;81.0
53940;BME280;39850;43.324;21.916;2024-03-07T11:31:12;990.0;;;7.4;80.0
53940;BME280;39850;43.324;21.916;2024-03-07T11:35:51;990.0;;;7.4;80.0
53940;BME280;39850;43.324;21.916;2024-03-07T11:40:43;990.0;;;7.1;81.0
53940;BME280;39850;43.324;21.916;2024-03-07T11:45:22;990.0;;;7.1;81.0
53940;BME280;39850;43.324;21.916;2024-03-07T12:22:21;990.0;;;6.7;84.0
53940;BME280;39850;43.324;21.916;2024-03-07T12:27:11;990.0;;;6.7;84.0
53940;BME280;39850;43.324;21.916;2024-03-07T12:31:49;990.0;;;6.5;84.0
53940;BME280;39850;43.324;21.916;2024-03-07T12:36:28;990.0;;;6.5;84.0
53940;BME280;39850;43.324;21.916;2024-03-07T12:41:10;990.0;;;6.3;84.0
53940;BME280;39850;43.324;21.916;2024-03-07T12:45:51;990.0;;;6.3;84.0
53940;BME280;39850;43.324;21.916;2024-03-07T12:50:29;990.0;;;6.3;85.0
53940;BME280;39850;43.324;21.916;2024-03-07T12:55:07;990.0;;;6.3;85.0
53940;BME280;39850;43.324;21.916;2024-03-07T12:59:44;990.0;;;6.3;86.0
53940;BME280;39850;43.324;21.916;2024-03-07T13:04:21;990.0;;;6.3;86.0
53940;BME280;39850;43.324;21.916;2024-03-07T13:41:14;990.0;;;5.5;91.0
53940;BME280;39850;43.324;21.916;2024-03-07T13:45:50;990.0;;;5.5;91.0
53940;BME280;39850;43.324;21.916;2024-03-07T13:50:29;990.0;;;5.4;89.0
53940;BME280;39850;43.324;21.916;2024-03-07T13:55:07;990.0;;;5.4;89.0
53940;BME280;39850;43.324;21.916;2024-03-07T14:00:40;990.0;;;5.4;88.0
53940;BME280;39850;43.324;21.916;2024-03-07T14:06:03;990.0;;;5.4;88.0
53940;BME280;39850;43.324;21.916;2024-03-07T14:12:12;990.0;;;5.4;88.0
53940;BME280;39850;43.324;21.916;2024-03-07T14:19:19;990.0;;;5.4;88.0
53940;BME280;39850;43.324;21.916;2024-03-07T14:25:57;990.0;;;5.4;88.0
53940;BME280;39850;43.324;21.916;2024-03-07T14:59:32;991.0;;;4.4;92.0
53940;BME280;39850;43.324;21.916;2024-03-07T15:04:11;991.0;;;4.4;92.0
53940;BME280;39850;43.324;21.916;2024-03-07T15:08:49;991.0;;;4.4;92.0
53940;BME280;39850;43.324;21.916;2024-03-07T15:13:25;991.0;;;4.9;91.0
53940;BME280;39850;43.324;21.916;2024-03-07T15:18:03;991.0;;;4.9;91.0
53940;BME280;39850;43.324;21.916;2024-03-07T15:22:39;991.0;;;5.0;89.0
53940;BME280;39850;43.324;21.916;2024-03-07T15:27:16;991.0;;;5.0;89.0
53940;BME280;39850;43.324;21.916;2024-03-07T15:31:52;991.0;;;5.2;89.0
53940;BME280;39850;43.324;21.916;2024-03-07T15:36:29;991.0;;;5.2;89.0
53940;BME280;39850;43.324;21.916;2024-03-07T15:41:08;991.0;;;5.0;89.0
53940;BME280;39850;43.324;21.916;2024-03-07T15:45:45;991.0;;;5.0;89.0
53940;BME280;39850;43.324;21.916;2024-03-07T16:22:46;991.0;;;4.5;94.0
53940;BME280;39850;43.324;21.916;2024-03-07T16:27:23;991.0;;;4.5;94.0
53940;BME280;39850;43.324;21.916;2024-03-07T16:32:00;991.0;;;4.5;94.0
53940;BME280;39850;43.324;21.916;2024-03-07T16:36:36;991.0;;;4.5;94.0
53940;BME280;39850;43.324;21.916;2024-03-07T16:41:13;992.0;;;4.2;94.0
53940;BME280;39850;43.324;21.916;2024-03-07T16:45:50;992.0;;;4.2;94.0
53940;BME280;39850;43.324;21.916;2024-03-07T16:50:32;992.0;;;4.0;94.0
53940;BME280;39850;43.324;21.916;2024-03-07T16:55:11;992.0;;;4.0;94.0
53940;BME280;39850;43.324;21.916;2024-03-07T16:59:49;992.0;;;4.0;94.0
53940;BME280;39850;43.324;21.916;2024-03-07T17:04:26;992.0;;;4.0;94.0
53940;BME280;39850;43.324;21.916;2024-03-07T17:09:03;992.0;;;4.0;94.0
53940;BME280;39850;43.324;21.916;2024-03-07T17:41:25;992.0;;;3.7;92.0
53940;BME280;39850;43.324;21.916;2024-03-07T17:46:02;992.0;;;3.7;92.0
53940;BME280;39850;43.324;21.916;2024-03-07T17:50:39;992.0;;;3.9;92.0
53940;BME280;39850;43.324;21.916;2024-03-07T17:55:16;992.0;;;3.9;92.0
53940;BME280;39850;43.324;21.916;2024-03-07T17:59:53;992.0;;;3.9;92.0
53940;BME280;39850;43.324;21.916;2024-03-07T18:04:29;992.0;;;3.8;91.0
53940;BME280;39850;43.324;21.916;2024-03-07T18:09:05;992.0;;;3.8;91.0
53940;BME280;39850;43.324;21.916;2024-03-07T18:13:41;992.0;;;4.0;91.0
53940;BME280;39850;43.324;21.916;2024-03-07T18:18:18;992.0;;;4.0;91.0
53940;BME280;39850;43.324;21.916;2024-03-07T18:22:55;992.0;;;3.8;91.0
53940;BME280;39850;43.324;21.916;2024-03-07T18:27:32;992.0;;;3.8;91.0
53940;BME280;39850;43.324;21.916;2024-03-07T19:04:25;993.0;;;4.4;88.0
53940;BME280;39850;43.324;21.916;2024-03-07T19:09:01;993.0;;;4.4;88.0
53940;BME280;39850;43.324;21.916;2024-03-07T19:13:37;993.0;;;4.4;87.0
53940;BME280;39850;43.324;21.916;2024-03-07T19:18:14;993.0;;;4.4;87.0
53940;BME280;39850;43.324;21.916;2024-03-07T19:22:51;993.0;;;4.4;87.0
53940;BME280;39850;43.324;21.916;2024-03-07T19:27:28;993.0;;;4.4;87.0
53940;BME280;39850;43.324;21.916;2024-03-07T19:32:06;993.0;;;4.4;86.0
53940;BME280;39850;43.324;21.916;2024-03-07T19:36:49;993.0;;;4.4;86.0
53940;BME280;39850;43.324;21.916;2024-03-07T19:41:28;993.0;;;4.5;86.0
53940;BME280;39850;43.324;21.916;2024-03-07T19:46:05;993.0;;;4.5;86.0
53940;BME280;39850;43.324;21.916;2024-03-07T20:23:00;993.0;;;4.7;85.0
53940;BME280;39850;43.324;21.916;2024-03-07T20:27:36;993.0;;;4.7;85.0
53940;BME280;39850;43.324;21.916;2024-03-07T20:32:13;993.0;;;4.6;86.0
53940;BME280;39850;43.324;21.916;2024-03-07T20:36:50;993.0;;;4.6;86.0
53940;BME280;39850;43.324;21.916;2024-03-07T20:41:26;993.0;;;4.7;85.0
53940;BME280;39850;43.324;21.916;2024-03-07T20:46:04;993.0;;;4.7;85.0
53940;BME280;39850;43.324;21.916;2024-03-07T20:50:41;993.0;;;4.6;86.0
53940;BME280;39850;43.324;21.916;2024-03-07T20:55:20;993.0;;;4.6;86.0
53940;BME280;39850;43.324;21.916;2024-03-07T20:59:57;993.0;;;4.6;86.0
53940;BME280;39850;43.324;21.916;2024-03-07T21:04:33;993.0;;;4.7;85.0
53940;BME280;39850;43.324;21.916;2024-03-07T21:09:10;993.0;;;4.7;85.0
53940;BME280;39850;43.324;21.916;2024-03-07T21:41:26;994.0;;;4.7;86.0
53940;BME280;39850;43.324;21.916;2024-03-07T21:46:04;994.0;;;4.7;86.0
53940;BME280;39850;43.324;21.916;2024-03-07T21:50:40;994.0;;;4.7;86.0
53940;BME280;39850;43.324;21.916;2024-03-07T21:55:18;994.0;;;4.8;86.0
53940;BME280;39850;43.324;21.916;2024-03-07T21:59:55;994.0;;;4.8;86.0
53940;BME280;39850;43.324;21.916;2024-03-07T22:04:33;994.0;;;4.7;85.0
53940;BME280;39850;43.324;21.916;2024-03-07T22:09:11;994.0;;;4.7;85.0
53940;BME280;39850;43.324;21.916;2024-03-07T22:13:48;994.0;;;4.8;85.0
53940;BME280;39850;43.324;21.916;2024-03-07T22:18:25;994.0;;;4.8;85.0
53940;BME280;39850;43.324;21.916;2024-03-07T22:23:02;994.0;;;4.6;85.0
53940;BME280;39850;43.324;21.916;2024-03-07T22:27:43;994.0;;;4.6;85.0
53940;BME280;39850;43.324;21.916;2024-03-07T23:04:34;994.0;;;5.5;84.0
53940;BME280;39850;43.324;21.916;2024-03-07T23:09:11;994.0;;;5.5;84.0
53940;BME280;39850;43.324;21.916;2024-03-07T23:13:47;994.0;;;5.0;84.0
53940;BME280;39850;43.324;21.916;2024-03-07T23:18:24;994.0;;;5.0;84.0
53940;BME280;39850;43.324;21.916;2024-03-07T23:23:01;994.0;;;5.5;84.0
53940;BME280;39850;43.324;21.916;2024-03-07T23:27:39;994.0;;;5.5;84.0
53940;BME280;39850;43.324;21.916;2024-03-07T23:32:17;994.0;;;5.0;84.0
53940;BME280;39850;43.324;21.916;2024-03-07T23:36:54;994.0;;;5.0;84.0
53940;BME280;39850;43.324;21.916;2024-03-07T23:41:30;994.0;;;5.5;84.0
53940;BME280;39850;43.324;21.916;2024-03-07T23:46:07;994.0;;;5.5;84.0
53940;BME280;39850;43.324;21.916;2024-03-07T23:50:44;994.0;;;5.5;84.0
